CFZWF KBOI-KPIH
Flight info
| Callsign | CFZWF |
|---|---|
| Flight time | 0h 59m |
| Altitude | 17000 |
| Route | CANEK V4 ALKAL V253 TWF V269 PIH |
| Aircraft | TBM8/L-SDFGRWY/S |
Departure
| Time | 2026-05-05 05:45 |
|---|---|
| Airport | Boise Air Terminal/Gowen Field (KBOI) |
Arrival
| Time | 2026-05-05 06:44 |
|---|---|
| Airport | Pocatello Regional Airport (KPIH) |
| Time | Latitude | Longitude | Altitude | Speed | Heading |
|---|---|---|---|---|---|
| 2026-05-05 05:37 | 43.56541 | -116.21247 | 2863 ft | 0 kts | 269° |
| 2026-05-05 05:42 | 43.56529 | -116.21254 | 2864 ft | 7 kts | 178° |
| 2026-05-05 05:42 | 43.56482 | -116.21257 | 2865 ft | 5 kts | 217° |
| 2026-05-05 05:42 | 43.56454 | -116.21291 | 2866 ft | 8 kts | 222° |
| 2026-05-05 05:42 | 43.56373 | -116.21322 | 2866 ft | 14 kts | 178° |
| 2026-05-05 05:43 | 43.56312 | -116.21260 | 2866 ft | 11 kts | 111° |
| 2026-05-05 05:43 | 43.56286 | -116.21179 | 2868 ft | 8 kts | 116° |
| 2026-05-05 05:43 | 43.56257 | -116.21129 | 2869 ft | 7 kts | 161° |
| 2026-05-05 05:43 | 43.56205 | -116.21155 | 2869 ft | 11 kts | 210° |
| 2026-05-05 05:44 | 43.56183 | -116.21250 | 2867 ft | 12 kts | 296° |
| 2026-05-05 05:44 | 43.56202 | -116.21301 | 2866 ft | 0 kts | 295° |
| 2026-05-05 05:44 | 43.56219 | -116.21349 | 2865 ft | 24 kts | 296° |
| 2026-05-05 05:44 | 43.56365 | -116.21764 | 2853 ft | 74 kts | 296° |
| 2026-05-05 05:45 | 43.56613 | -116.22557 | 2973 ft | 100 kts | 295° |
| 2026-05-05 05:45 | 43.56956 | -116.23492 | 3182 ft | 119 kts | 303° |
| 2026-05-05 05:45 | 43.57421 | -116.24553 | 3504 ft | 134 kts | 301° |
| 2026-05-05 05:45 | 43.57725 | -116.25350 | 3834 ft | 137 kts | 297° |
| 2026-05-05 05:46 | 43.58138 | -116.26187 | 4006 ft | 147 kts | 320° |
| 2026-05-05 05:46 | 43.58258 | -116.26325 | 4037 ft | 149 kts | 325° |
| 2026-05-05 05:46 | 43.58844 | -116.26719 | 4332 ft | 145 kts | 346° |
| 2026-05-05 05:46 | 43.59614 | -116.26716 | 4809 ft | 138 kts | 15° |
| 2026-05-05 05:47 | 43.60147 | -116.26346 | 5037 ft | 145 kts | 33° |
| 2026-05-05 05:47 | 43.60761 | -116.25242 | 5337 ft | 157 kts | 65° |
| 2026-05-05 05:47 | 43.60869 | -116.24330 | 5572 ft | 162 kts | 87° |
| 2026-05-05 05:47 | 43.60599 | -116.23097 | 5968 ft | 163 kts | 115° |
| 2026-05-05 05:48 | 43.59892 | -116.21930 | 6343 ft | 165 kts | 128° |
| 2026-05-05 05:48 | 43.59119 | -116.20818 | 6715 ft | 163 kts | 126° |
| 2026-05-05 05:48 | 43.58332 | -116.19697 | 7031 ft | 166 kts | 131° |
| 2026-05-05 05:48 | 43.57229 | -116.18225 | 7529 ft | 167 kts | 131° |
| 2026-05-05 05:49 | 43.56292 | -116.17277 | 7882 ft | 171 kts | 154° |
| 2026-05-05 05:49 | 43.55184 | -116.16677 | 8206 ft | 171 kts | 155° |
| 2026-05-05 05:49 | 43.54449 | -116.16273 | 8412 ft | 172 kts | 155° |
| 2026-05-05 05:49 | 43.53334 | -116.15659 | 8736 ft | 173 kts | 155° |
| 2026-05-05 05:50 | 43.52217 | -116.15037 | 9070 ft | 173 kts | 153° |
| 2026-05-05 05:50 | 43.51352 | -116.13959 | 9424 ft | 169 kts | 120° |
| 2026-05-05 05:50 | 43.50686 | -116.12623 | 9735 ft | 172 kts | 123° |
| 2026-05-05 05:50 | 43.49939 | -116.11345 | 10066 ft | 171 kts | 126° |
| 2026-05-05 05:51 | 43.49181 | -116.10078 | 10358 ft | 172 kts | 126° |
| 2026-05-05 05:51 | 43.48423 | -116.08807 | 10665 ft | 172 kts | 126° |
| 2026-05-05 05:51 | 43.47663 | -116.07530 | 10966 ft | 172 kts | 126° |
| 2026-05-05 05:51 | 43.46901 | -116.06250 | 11272 ft | 173 kts | 127° |
| 2026-05-05 05:52 | 43.46134 | -116.04972 | 11579 ft | 173 kts | 126° |
| 2026-05-05 05:52 | 43.45368 | -116.03688 | 11884 ft | 174 kts | 127° |
| 2026-05-05 05:52 | 43.44600 | -116.02404 | 12199 ft | 174 kts | 127° |
| 2026-05-05 05:52 | 43.43827 | -116.01113 | 12524 ft | 174 kts | 127° |
| 2026-05-05 05:53 | 43.43053 | -115.99821 | 12841 ft | 175 kts | 127° |
| 2026-05-05 05:53 | 43.42289 | -115.98543 | 13155 ft | 175 kts | 127° |
| 2026-05-05 05:53 | 43.41513 | -115.97247 | 13470 ft | 176 kts | 128° |
| 2026-05-05 05:53 | 43.40730 | -115.95943 | 13751 ft | 177 kts | 128° |
| 2026-05-05 05:54 | 43.39946 | -115.94634 | 14013 ft | 178 kts | 127° |
| 2026-05-05 05:54 | 43.39155 | -115.93316 | 14276 ft | 179 kts | 127° |
| 2026-05-05 05:54 | 43.38356 | -115.91984 | 14540 ft | 180 kts | 126° |
| 2026-05-05 05:54 | 43.37556 | -115.90649 | 14799 ft | 182 kts | 127° |
| 2026-05-05 05:55 | 43.36749 | -115.89308 | 15062 ft | 183 kts | 126° |
| 2026-05-05 05:55 | 43.35935 | -115.87949 | 15324 ft | 184 kts | 126° |
| 2026-05-05 05:55 | 43.35128 | -115.86610 | 15584 ft | 185 kts | 126° |
| 2026-05-05 05:55 | 43.34305 | -115.85244 | 15859 ft | 186 kts | 126° |
| 2026-05-05 05:56 | 43.33478 | -115.83870 | 16127 ft | 187 kts | 126° |
| 2026-05-05 05:56 | 43.32646 | -115.82486 | 16397 ft | 188 kts | 126° |
| 2026-05-05 05:56 | 43.31809 | -115.81097 | 16669 ft | 189 kts | 126° |
| 2026-05-05 05:56 | 43.30960 | -115.79700 | 16936 ft | 191 kts | 127° |
| 2026-05-05 05:57 | 43.30090 | -115.78313 | 17216 ft | 192 kts | 127° |
| 2026-05-05 05:57 | 43.29222 | -115.76920 | 17485 ft | 193 kts | 126° |
| 2026-05-05 05:57 | 43.28348 | -115.75508 | 17695 ft | 198 kts | 127° |
| 2026-05-05 05:57 | 43.27421 | -115.74019 | 17702 ft | 212 kts | 127° |
| 2026-05-05 05:58 | 43.26433 | -115.72436 | 17708 ft | 224 kts | 127° |
| 2026-05-05 05:58 | 43.25403 | -115.70778 | 17705 ft | 233 kts | 127° |
| 2026-05-05 05:58 | 43.24330 | -115.69054 | 17711 ft | 241 kts | 128° |
| 2026-05-05 05:58 | 43.23228 | -115.67284 | 17714 ft | 247 kts | 128° |
| 2026-05-05 05:59 | 43.22118 | -115.65503 | 17712 ft | 251 kts | 128° |
| 2026-05-05 05:59 | 43.20960 | -115.63647 | 17711 ft | 254 kts | 128° |
| 2026-05-05 05:59 | 43.19805 | -115.61795 | 17710 ft | 257 kts | 128° |
| 2026-05-05 05:59 | 43.18638 | -115.59928 | 17712 ft | 259 kts | 128° |
| 2026-05-05 06:00 | 43.17461 | -115.58047 | 17705 ft | 261 kts | 128° |
| 2026-05-05 06:00 | 43.16277 | -115.56152 | 17708 ft | 262 kts | 128° |
| 2026-05-05 06:00 | 43.15094 | -115.54257 | 17703 ft | 262 kts | 128° |
| 2026-05-05 06:00 | 43.13903 | -115.52353 | 17703 ft | 263 kts | 128° |
| 2026-05-05 06:01 | 43.12725 | -115.50473 | 17698 ft | 264 kts | 128° |
| 2026-05-05 06:01 | 43.11524 | -115.48560 | 17694 ft | 264 kts | 128° |
| 2026-05-05 06:01 | 43.10328 | -115.46652 | 17694 ft | 264 kts | 128° |
| 2026-05-05 06:01 | 43.09128 | -115.44738 | 17694 ft | 265 kts | 128° |
| 2026-05-05 06:02 | 43.07923 | -115.42821 | 17697 ft | 266 kts | 128° |
| 2026-05-05 06:02 | 43.06714 | -115.40896 | 17690 ft | 267 kts | 128° |
| 2026-05-05 06:02 | 43.05502 | -115.38970 | 17687 ft | 267 kts | 128° |
| 2026-05-05 06:02 | 43.04290 | -115.37044 | 17688 ft | 267 kts | 128° |
| 2026-05-05 06:03 | 43.03080 | -115.35120 | 17683 ft | 266 kts | 128° |
| 2026-05-05 06:03 | 43.01885 | -115.33225 | 17684 ft | 266 kts | 128° |
| 2026-05-05 06:03 | 43.00680 | -115.31312 | 17688 ft | 265 kts | 128° |
| 2026-05-05 06:03 | 42.99473 | -115.29402 | 17688 ft | 265 kts | 128° |
| 2026-05-05 06:04 | 42.98267 | -115.27489 | 17690 ft | 266 kts | 128° |
| 2026-05-05 06:04 | 42.97056 | -115.25573 | 17688 ft | 266 kts | 128° |
| 2026-05-05 06:04 | 42.95847 | -115.23659 | 17695 ft | 267 kts | 128° |
| 2026-05-05 06:04 | 42.94634 | -115.21742 | 17703 ft | 267 kts | 128° |
| 2026-05-05 06:05 | 42.93422 | -115.19828 | 17707 ft | 267 kts | 128° |
| 2026-05-05 06:05 | 42.92210 | -115.17915 | 17718 ft | 267 kts | 128° |
| 2026-05-05 06:05 | 42.90996 | -115.15999 | 17725 ft | 266 kts | 128° |
| 2026-05-05 06:05 | 42.89783 | -115.14087 | 17728 ft | 266 kts | 128° |
| 2026-05-05 06:06 | 42.88587 | -115.12202 | 17732 ft | 266 kts | 128° |
| 2026-05-05 06:06 | 42.87375 | -115.10293 | 17736 ft | 266 kts | 129° |
| 2026-05-05 06:06 | 42.86165 | -115.08390 | 17740 ft | 265 kts | 129° |
| 2026-05-05 06:06 | 42.84955 | -115.06487 | 17744 ft | 265 kts | 129° |
| 2026-05-05 06:07 | 42.83750 | -115.04591 | 17749 ft | 265 kts | 129° |
| 2026-05-05 06:07 | 42.82543 | -115.02698 | 17754 ft | 264 kts | 129° |
| 2026-05-05 06:07 | 42.81334 | -115.00801 | 17753 ft | 264 kts | 129° |
| 2026-05-05 06:07 | 42.80131 | -114.98913 | 17757 ft | 264 kts | 129° |
| 2026-05-05 06:08 | 42.78925 | -114.97021 | 17755 ft | 264 kts | 129° |
| 2026-05-05 06:08 | 42.77723 | -114.95139 | 17759 ft | 263 kts | 129° |
| 2026-05-05 06:08 | 42.76519 | -114.93257 | 17756 ft | 264 kts | 129° |
| 2026-05-05 06:08 | 42.75313 | -114.91368 | 17758 ft | 264 kts | 129° |
| 2026-05-05 06:09 | 42.74124 | -114.89509 | 17758 ft | 264 kts | 129° |
| 2026-05-05 06:09 | 42.72916 | -114.87622 | 17754 ft | 264 kts | 129° |
| 2026-05-05 06:09 | 42.71708 | -114.85735 | 17755 ft | 265 kts | 129° |
| 2026-05-05 06:09 | 42.70499 | -114.83848 | 17748 ft | 264 kts | 129° |
| 2026-05-05 06:10 | 42.69288 | -114.81961 | 17743 ft | 264 kts | 129° |
| 2026-05-05 06:10 | 42.68081 | -114.80081 | 17739 ft | 263 kts | 129° |
| 2026-05-05 06:10 | 42.66879 | -114.78208 | 17733 ft | 263 kts | 129° |
| 2026-05-05 06:10 | 42.65673 | -114.76330 | 17738 ft | 262 kts | 129° |
| 2026-05-05 06:11 | 42.64476 | -114.74469 | 17742 ft | 262 kts | 129° |
| 2026-05-05 06:11 | 42.63273 | -114.72601 | 17752 ft | 262 kts | 129° |
| 2026-05-05 06:11 | 42.62074 | -114.70738 | 17749 ft | 262 kts | 129° |
| 2026-05-05 06:11 | 42.60874 | -114.68874 | 17760 ft | 261 kts | 129° |
| 2026-05-05 06:12 | 42.59676 | -114.67012 | 17766 ft | 262 kts | 129° |
| 2026-05-05 06:12 | 42.58478 | -114.65154 | 17769 ft | 262 kts | 129° |
| 2026-05-05 06:12 | 42.57292 | -114.63320 | 17776 ft | 262 kts | 129° |
| 2026-05-05 06:12 | 42.56096 | -114.61465 | 17785 ft | 261 kts | 129° |
| 2026-05-05 06:13 | 42.54900 | -114.59614 | 17795 ft | 261 kts | 129° |
| 2026-05-05 06:13 | 42.53701 | -114.57760 | 17799 ft | 261 kts | 129° |
| 2026-05-05 06:13 | 42.52504 | -114.55910 | 17802 ft | 261 kts | 129° |
| 2026-05-05 06:13 | 42.51307 | -114.54062 | 17800 ft | 260 kts | 129° |
| 2026-05-05 06:14 | 42.50112 | -114.52217 | 17800 ft | 261 kts | 129° |
| 2026-05-05 06:14 | 42.49104 | -114.50197 | 17798 ft | 258 kts | 112° |
| 2026-05-05 06:14 | 42.48587 | -114.47888 | 17803 ft | 256 kts | 97° |
| 2026-05-05 06:14 | 42.48572 | -114.45493 | 17803 ft | 254 kts | 81° |
| 2026-05-05 06:15 | 42.48943 | -114.43158 | 17799 ft | 253 kts | 76° |
| 2026-05-05 06:15 | 42.49321 | -114.40827 | 17801 ft | 254 kts | 77° |
| 2026-05-05 06:15 | 42.49688 | -114.38517 | 17806 ft | 254 kts | 76° |
| 2026-05-05 06:15 | 42.50080 | -114.36153 | 17799 ft | 254 kts | 76° |
| 2026-05-05 06:16 | 42.50458 | -114.33849 | 17792 ft | 254 kts | 76° |
| 2026-05-05 06:16 | 42.50835 | -114.31511 | 17784 ft | 254 kts | 76° |
| 2026-05-05 06:16 | 42.51215 | -114.29171 | 17774 ft | 253 kts | 76° |
| 2026-05-05 06:16 | 42.51589 | -114.26842 | 17767 ft | 253 kts | 76° |
| 2026-05-05 06:17 | 42.51965 | -114.24507 | 17762 ft | 254 kts | 76° |
| 2026-05-05 06:17 | 42.52344 | -114.22174 | 17755 ft | 253 kts | 76° |
| 2026-05-05 06:17 | 42.52724 | -114.19831 | 17757 ft | 254 kts | 77° |
| 2026-05-05 06:17 | 42.53101 | -114.17482 | 17745 ft | 255 kts | 77° |
| 2026-05-05 06:18 | 42.53477 | -114.15133 | 17746 ft | 255 kts | 76° |
| 2026-05-05 06:18 | 42.53856 | -114.12779 | 17742 ft | 256 kts | 76° |
| 2026-05-05 06:18 | 42.54231 | -114.10454 | 17745 ft | 255 kts | 77° |
| 2026-05-05 06:18 | 42.54610 | -114.08100 | 17759 ft | 255 kts | 77° |
| 2026-05-05 06:19 | 42.54983 | -114.05749 | 17763 ft | 255 kts | 77° |
| 2026-05-05 06:19 | 42.55356 | -114.03403 | 17776 ft | 255 kts | 77° |
| 2026-05-05 06:19 | 42.55730 | -114.01060 | 17787 ft | 256 kts | 77° |
| 2026-05-05 06:19 | 42.56110 | -113.98698 | 17783 ft | 255 kts | 77° |
| 2026-05-05 06:20 | 42.56484 | -113.96341 | 17792 ft | 255 kts | 77° |
| 2026-05-05 06:20 | 42.56855 | -113.93981 | 17796 ft | 256 kts | 77° |
| 2026-05-05 06:20 | 42.57230 | -113.91626 | 17805 ft | 256 kts | 77° |
| 2026-05-05 06:20 | 42.57606 | -113.89269 | 17806 ft | 256 kts | 76° |
| 2026-05-05 06:21 | 42.57976 | -113.86939 | 17817 ft | 256 kts | 76° |
| 2026-05-05 06:21 | 42.58494 | -113.84637 | 17813 ft | 255 kts | 70° |
| 2026-05-05 06:21 | 42.59071 | -113.82364 | 17812 ft | 255 kts | 70° |
| 2026-05-05 06:21 | 42.59629 | -113.80076 | 17804 ft | 256 kts | 71° |
| 2026-05-05 06:22 | 42.60187 | -113.77781 | 17808 ft | 256 kts | 70° |
| 2026-05-05 06:22 | 42.60745 | -113.75490 | 17800 ft | 256 kts | 71° |
| 2026-05-05 06:22 | 42.61310 | -113.73189 | 17807 ft | 256 kts | 70° |
| 2026-05-05 06:22 | 42.61872 | -113.70892 | 17808 ft | 257 kts | 71° |
| 2026-05-05 06:23 | 42.62422 | -113.68617 | 17807 ft | 257 kts | 70° |
| 2026-05-05 06:23 | 42.62994 | -113.66283 | 17798 ft | 257 kts | 71° |
| 2026-05-05 06:23 | 42.63363 | -113.64761 | 17798 ft | 256 kts | 70° |
| 2026-05-05 06:23 | 42.64111 | -113.61680 | 17788 ft | 257 kts | 71° |
| 2026-05-05 06:24 | 42.64670 | -113.59373 | 17783 ft | 256 kts | 70° |
| 2026-05-05 06:24 | 42.65225 | -113.57100 | 17778 ft | 257 kts | 71° |
| 2026-05-05 06:24 | 42.65778 | -113.54796 | 17772 ft | 256 kts | 70° |
| 2026-05-05 06:24 | 42.66335 | -113.52499 | 17768 ft | 256 kts | 70° |
| 2026-05-05 06:25 | 42.66895 | -113.50199 | 17762 ft | 257 kts | 71° |
| 2026-05-05 06:25 | 42.67450 | -113.47891 | 17756 ft | 257 kts | 71° |
| 2026-05-05 06:25 | 42.68004 | -113.45581 | 17755 ft | 257 kts | 70° |
| 2026-05-05 06:25 | 42.68564 | -113.43277 | 17752 ft | 257 kts | 70° |
| 2026-05-05 06:26 | 42.69122 | -113.40963 | 17746 ft | 258 kts | 70° |
| 2026-05-05 06:26 | 42.69680 | -113.38642 | 17748 ft | 259 kts | 70° |
| 2026-05-05 06:26 | 42.70239 | -113.36308 | 17743 ft | 259 kts | 70° |
| 2026-05-05 06:26 | 42.70795 | -113.33987 | 17735 ft | 258 kts | 70° |
| 2026-05-05 06:27 | 42.71354 | -113.31663 | 17734 ft | 258 kts | 70° |
| 2026-05-05 06:27 | 42.72462 | -113.27034 | 17734 ft | 257 kts | 71° |
| 2026-05-05 06:27 | 42.73014 | -113.24723 | 17732 ft | 257 kts | 70° |
| 2026-05-05 06:28 | 42.73567 | -113.22414 | 17734 ft | 256 kts | 70° |
| 2026-05-05 06:28 | 42.74119 | -113.20107 | 17735 ft | 256 kts | 71° |
| 2026-05-05 06:28 | 42.74662 | -113.17828 | 17745 ft | 256 kts | 70° |
| 2026-05-05 06:28 | 42.75211 | -113.15511 | 17733 ft | 257 kts | 70° |
| 2026-05-05 06:29 | 42.75763 | -113.13194 | 17738 ft | 258 kts | 70° |
| 2026-05-05 06:29 | 42.76318 | -113.10869 | 17745 ft | 258 kts | 70° |
| 2026-05-05 06:29 | 42.76870 | -113.08537 | 17740 ft | 258 kts | 70° |
| 2026-05-05 06:29 | 42.77421 | -113.06211 | 17746 ft | 258 kts | 70° |
| 2026-05-05 06:30 | 42.77973 | -113.03882 | 17748 ft | 259 kts | 70° |
| 2026-05-05 06:30 | 42.78526 | -113.01547 | 17751 ft | 259 kts | 70° |
| 2026-05-05 06:30 | 42.79077 | -112.99211 | 17767 ft | 259 kts | 70° |
| 2026-05-05 06:30 | 42.79630 | -112.96874 | 17772 ft | 259 kts | 70° |
| 2026-05-05 06:31 | 42.80181 | -112.94537 | 17778 ft | 260 kts | 70° |
| 2026-05-05 06:31 | 42.80732 | -112.92195 | 17794 ft | 260 kts | 70° |
| 2026-05-05 06:31 | 42.81286 | -112.89838 | 17795 ft | 260 kts | 70° |
| 2026-05-05 06:31 | 42.81833 | -112.87518 | 17799 ft | 261 kts | 70° |
| 2026-05-05 06:32 | 42.82383 | -112.85166 | 17807 ft | 260 kts | 70° |
| 2026-05-05 06:32 | 42.82933 | -112.82821 | 17818 ft | 260 kts | 70° |
| 2026-05-05 06:32 | 42.83485 | -112.80473 | 17823 ft | 260 kts | 70° |
| 2026-05-05 06:32 | 42.84035 | -112.78122 | 17830 ft | 261 kts | 70° |
| 2026-05-05 06:33 | 42.84587 | -112.75769 | 17836 ft | 261 kts | 70° |
| 2026-05-05 06:33 | 42.85139 | -112.73407 | 17849 ft | 261 kts | 70° |
| 2026-05-05 06:33 | 42.85687 | -112.71052 | 17854 ft | 261 kts | 70° |
| 2026-05-05 06:33 | 42.86237 | -112.68690 | 17862 ft | 261 kts | 70° |
| 2026-05-05 06:34 | 42.86805 | -112.66341 | 17857 ft | 261 kts | 66° |
| 2026-05-05 06:34 | 42.87741 | -112.64244 | 17860 ft | 259 kts | 48° |
| 2026-05-05 06:34 | 42.88981 | -112.62473 | 17856 ft | 257 kts | 43° |
| 2026-05-05 06:34 | 42.90217 | -112.60708 | 17856 ft | 258 kts | 44° |
| 2026-05-05 06:35 | 42.91448 | -112.58928 | 17857 ft | 258 kts | 44° |
| 2026-05-05 06:35 | 42.92685 | -112.57159 | 17860 ft | 258 kts | 44° |
| 2026-05-05 06:35 | 42.93925 | -112.55386 | 17858 ft | 258 kts | 44° |
| 2026-05-05 06:35 | 42.94743 | -112.54214 | 17861 ft | 258 kts | 44° |
| 2026-05-05 06:36 | 42.95978 | -112.52446 | 17862 ft | 257 kts | 44° |
| 2026-05-05 06:36 | 42.97212 | -112.50674 | 17846 ft | 258 kts | 44° |
| 2026-05-05 06:36 | 42.98453 | -112.48880 | 17291 ft | 260 kts | 45° |
| 2026-05-05 06:36 | 42.99646 | -112.47109 | 16512 ft | 247 kts | 45° |
| 2026-05-05 06:37 | 43.00855 | -112.45512 | 15747 ft | 236 kts | 33° |
| 2026-05-05 06:37 | 43.02356 | -112.44782 | 14988 ft | 227 kts | 2° |
| 2026-05-05 06:37 | 43.03850 | -112.45235 | 14265 ft | 220 kts | 330° |
| 2026-05-05 06:37 | 43.04891 | -112.46692 | 13549 ft | 215 kts | 297° |
| 2026-05-05 06:38 | 43.05164 | -112.48635 | 12773 ft | 212 kts | 264° |
| 2026-05-05 06:38 | 43.04623 | -112.50514 | 12011 ft | 211 kts | 238° |
| 2026-05-05 06:38 | 43.03798 | -112.52134 | 11290 ft | 209 kts | 234° |
| 2026-05-05 06:38 | 43.02949 | -112.53747 | 10572 ft | 208 kts | 234° |
| 2026-05-05 06:39 | 43.02109 | -112.55343 | 9868 ft | 206 kts | 234° |
| 2026-05-05 06:39 | 43.01275 | -112.56935 | 9133 ft | 206 kts | 234° |
| 2026-05-05 06:39 | 43.00332 | -112.58411 | 8382 ft | 208 kts | 216° |
| 2026-05-05 06:39 | 42.98993 | -112.59059 | 7643 ft | 206 kts | 184° |
| 2026-05-05 06:40 | 42.97577 | -112.59154 | 6949 ft | 203 kts | 180° |
| 2026-05-05 06:40 | 42.96154 | -112.59228 | 6294 ft | 205 kts | 179° |
| 2026-05-05 06:40 | 42.94761 | -112.59300 | 5808 ft | 197 kts | 180° |
| 2026-05-05 06:40 | 42.93416 | -112.59357 | 5289 ft | 187 kts | 180° |
| 2026-05-05 06:41 | 42.92170 | -112.59404 | 4997 ft | 167 kts | 179° |
| 2026-05-05 06:41 | 42.91198 | -112.59451 | 4987 ft | 145 kts | 179° |
| 2026-05-05 06:41 | 42.90401 | -112.59570 | 4975 ft | 134 kts | 198° |
| 2026-05-05 06:41 | 42.89729 | -112.60328 | 4967 ft | 123 kts | 229° |
| 2026-05-05 06:42 | 42.89082 | -112.61138 | 5005 ft | 139 kts | 222° |
| 2026-05-05 06:42 | 42.88275 | -112.62065 | 5074 ft | 163 kts | 208° |
| 2026-05-05 06:42 | 42.87253 | -112.62793 | 5315 ft | 168 kts | 230° |
| 2026-05-05 06:42 | 42.87119 | -112.64266 | 5377 ft | 168 kts | 307° |
| 2026-05-05 06:43 | 42.88119 | -112.64802 | 5564 ft | 163 kts | 20° |
| 2026-05-05 06:43 | 42.88610 | -112.63609 | 5324 ft | 151 kts | 90° |
| 2026-05-05 06:43 | 42.88793 | -112.62340 | 5106 ft | 129 kts | 62° |
| 2026-05-05 06:43 | 42.89230 | -112.61377 | 4837 ft | 110 kts | 49° |
| 2026-05-05 06:44 | 42.89684 | -112.60718 | 4698 ft | 82 kts | 41° |
| 2026-05-05 06:44 | 42.90059 | -112.60223 | 4511 ft | 72 kts | 39° |
| 2026-05-05 06:44 | 42.90390 | -112.59774 | 4457 ft | 61 kts | 40° |
| 2026-05-05 06:44 | 42.90659 | -112.59417 | 4449 ft | 40 kts | 45° |
| 2026-05-05 06:45 | 42.90777 | -112.59260 | 4449 ft | 13 kts | 47° |
| 2026-05-05 06:45 | 42.90838 | -112.59171 | 4448 ft | 13 kts | 46° |
| 2026-05-05 06:45 | 42.90827 | -112.59071 | 4449 ft | 14 kts | 137° |
| 2026-05-05 06:45 | 42.90795 | -112.58949 | 4450 ft | 16 kts | 51° |
| 2026-05-05 06:46 | 42.90760 | -112.58822 | 4450 ft | 19 kts | 133° |
| 2026-05-05 06:46 | 42.90734 | -112.58779 | 4450 ft | 0 kts | 31° |